createdAt,value
2023-03-17T00:01:34.082Z,0.84
2023-03-17T00:04:01.525Z,0.79
2023-03-17T00:06:32.038Z,0.72
2023-03-17T00:08:59.175Z,0.67
2023-03-17T00:11:29.814Z,0.61
2023-03-17T00:13:59.374Z,0.56
2023-03-17T00:16:28.436Z,0.52
2023-03-17T00:18:56.782Z,0.51
2023-03-17T00:21:29.252Z,0.51
2023-03-17T00:24:07.485Z,0.50
2023-03-17T00:26:38.005Z,0.48
2023-03-17T00:29:06.011Z,0.45
2023-03-17T00:31:35.258Z,0.43
2023-03-17T00:34:16.814Z,0.40
2023-03-17T00:36:45.967Z,0.40
2023-03-17T00:41:42.512Z,0.41
2023-03-17T00:44:12.860Z,0.41
2023-03-17T00:46:50.863Z,0.41
2023-03-17T00:49:22.157Z,0.41
2023-03-17T00:51:49.873Z,0.41
2023-03-17T00:54:18.235Z,0.41
2023-03-17T00:56:46.517Z,0.40
2023-03-17T00:59:25.425Z,0.40
2023-03-17T01:01:52.626Z,0.38
2023-03-17T01:04:24.080Z,0.35
2023-03-17T01:06:53.298Z,0.31
2023-03-17T01:09:21.508Z,0.29
2023-03-17T01:11:51.924Z,0.27
2023-03-17T01:14:19.586Z,0.24
2023-03-17T01:16:47.881Z,0.20
2023-03-17T01:19:17.075Z,0.14
2023-03-17T01:21:44.605Z,0.11
2023-03-17T01:24:21.728Z,0.07
2023-03-17T01:26:51.089Z,0.03
2023-03-17T01:29:27.164Z,0.01
2023-03-17T01:31:56.910Z,-0.04
2023-03-17T01:34:24.055Z,-0.08
2023-03-17T01:36:51.170Z,-0.12
2023-03-17T01:39:20.948Z,-0.16
2023-03-17T01:41:47.874Z,-0.22
2023-03-17T01:44:20.775Z,-0.28
2023-03-17T01:46:49.589Z,-0.33
2023-03-17T01:49:33.167Z,-0.38
2023-03-17T01:52:09.590Z,-0.43
2023-03-17T01:54:43.791Z,-0.46
2023-03-17T01:57:18.043Z,-0.50
2023-03-17T01:59:56.589Z,-0.53
2023-03-17T02:02:32.004Z,-0.54
2023-03-17T02:05:22.216Z,-0.56
2023-03-17T02:08:00.908Z,-0.56
2023-03-17T02:10:35.519Z,-0.58
2023-03-17T02:13:17.009Z,-0.59
2023-03-17T02:15:54.650Z,-0.59
2023-03-17T02:18:34.885Z,-0.60
2023-03-17T02:21:35.601Z,-0.63
2023-03-17T02:24:21.834Z,-0.68
2023-03-17T02:26:54.668Z,-0.70
2023-03-17T02:29:37.995Z,-0.72
2023-03-17T02:32:19.465Z,-0.75
2023-03-17T02:35:08.587Z,-0.78
2023-03-17T02:37:37.342Z,-0.78
2023-03-17T02:40:25.546Z,-0.78
2023-03-17T02:42:54.137Z,-0.79
2023-03-17T02:45:32.462Z,-0.79
2023-03-17T02:48:20.235Z,-0.79
2023-03-17T02:51:08.118Z,-0.81
2023-03-17T02:53:37.939Z,-0.83
2023-03-17T02:56:05.635Z,-0.84
2023-03-17T02:58:32.722Z,-0.85
2023-03-17T03:00:59.968Z,-0.86
2023-03-17T03:03:27.637Z,-0.89
2023-03-17T03:05:54.849Z,-0.92
2023-03-17T03:08:22.140Z,-0.96
2023-03-17T03:10:49.247Z,-0.98
2023-03-17T03:13:27.164Z,-1.01
2023-03-17T03:16:14.647Z,-1.04
2023-03-17T03:18:41.883Z,-1.04
2023-03-17T03:21:09.707Z,-1.04
2023-03-17T03:23:39.626Z,-1.03
2023-03-17T03:26:07.849Z,-1.02
2023-03-17T03:28:37.763Z,-1.00
2023-03-17T03:31:08.597Z,-0.98
2023-03-17T03:33:38.856Z,-0.96
2023-03-17T03:36:17.505Z,-0.94
2023-03-17T03:38:58.756Z,-0.93
2023-03-17T03:41:33.163Z,-0.93
2023-03-17T03:44:14.086Z,-0.92
2023-03-17T03:46:52.322Z,-0.92
2023-03-17T03:49:27.125Z,-0.92
2023-03-17T03:52:14.499Z,-0.95
2023-03-17T03:54:43.578Z,-0.97
2023-03-17T03:57:10.791Z,-0.98
2023-03-17T03:59:41.297Z,-0.99
2023-03-17T04:02:09.555Z,-1.01
2023-03-17T04:04:57.956Z,-1.03
2023-03-17T04:07:33.907Z,-1.06
2023-03-17T04:10:01.100Z,-1.08
2023-03-17T04:12:48.136Z,-1.09
2023-03-17T04:15:20.707Z,-1.11
2023-03-17T04:17:55.070Z,-1.12
2023-03-17T04:20:42.558Z,-1.13
2023-03-17T04:23:31.630Z,-1.14
2023-03-17T04:26:10.364Z,-1.13
2023-03-17T04:28:57.669Z,-1.15
2023-03-17T04:31:39.800Z,-1.15
2023-03-17T04:34:19.546Z,-1.17
2023-03-17T04:37:07.470Z,-1.17
2023-03-17T04:39:38.165Z,-1.17
2023-03-17T04:42:14.810Z,-1.16
2023-03-17T04:45:02.071Z,-1.16
2023-03-17T04:47:50.059Z,-1.16
2023-03-17T04:50:37.400Z,-1.17
2023-03-17T04:53:14.738Z,-1.17
2023-03-17T04:55:54.606Z,-1.17
2023-03-17T04:58:42.051Z,-1.14
2023-03-17T05:01:29.438Z,-1.10
2023-03-17T05:04:30.717Z,-1.03
2023-03-17T05:07:18.858Z,-0.94
2023-03-17T05:10:08.001Z,-0.85
2023-03-17T05:12:45.345Z,-0.72
2023-03-17T05:15:33.711Z,-0.48
2023-03-17T05:18:15.000Z,-0.08
2023-03-17T05:21:02.888Z,0.57
2023-03-17T05:23:43.073Z,1.07
2023-03-17T05:26:30.611Z,1.27
2023-03-17T05:29:18.024Z,1.45
2023-03-17T05:31:59.480Z,1.77
2023-03-17T05:34:46.509Z,2.37
2023-03-17T05:37:27.406Z,3.17
2023-03-17T05:39:57.884Z,4.11
2023-03-17T05:42:45.593Z,5.15
2023-03-17T05:45:14.415Z,6.25
2023-03-17T05:47:44.893Z,7.41
2023-03-17T05:50:14.103Z,8.66
2023-03-17T05:52:44.225Z,9.99
2023-03-17T05:55:12.606Z,11.10
2023-03-17T05:57:39.753Z,12.17
2023-03-17T06:00:08.649Z,13.19
2023-03-17T06:02:36.442Z,14.13
2023-03-17T06:05:03.891Z,14.86
2023-03-17T06:07:44.582Z,15.59
2023-03-17T06:10:18.013Z,16.35
2023-03-17T06:12:45.076Z,17.03
2023-03-17T06:15:13.062Z,17.79
2023-03-17T06:17:40.313Z,17.76
2023-03-17T06:20:09.216Z,17.45
2023-03-17T06:22:37.421Z,16.62
2023-03-17T06:25:05.602Z,15.00
2023-03-17T06:27:32.990Z,13.65
2023-03-17T06:30:00.377Z,12.83
2023-03-17T06:32:28.388Z,13.11
2023-03-17T06:34:55.611Z,14.09
2023-03-17T06:37:22.719Z,15.48
2023-03-17T06:39:50.106Z,16.80
2023-03-17T06:42:17.912Z,17.30
2023-03-17T06:44:45.379Z,16.49
2023-03-17T06:47:12.792Z,15.06
2023-03-17T06:49:39.847Z,14.10
2023-03-17T06:52:08.870Z,13.95
2023-03-17T06:54:36.717Z,14.81
2023-03-17T06:57:03.911Z,16.14
2023-03-17T06:59:31.476Z,17.16
2023-03-17T07:01:59.160Z,17.11
2023-03-17T07:04:26.564Z,15.98
2023-03-17T07:06:53.698Z,15.17
2023-03-17T07:09:22.307Z,15.47
2023-03-17T07:11:49.739Z,16.01
2023-03-17T07:14:17.193Z,16.61
2023-03-17T07:16:45.236Z,17.20
2023-03-17T07:19:12.511Z,17.52
2023-03-17T07:21:39.812Z,17.64
2023-03-17T07:24:07.390Z,17.76
2023-03-17T07:26:34.654Z,17.99
2023-03-17T07:29:02.545Z,18.19
2023-03-17T07:31:29.846Z,18.19
2023-03-17T07:33:58.251Z,17.93
2023-03-17T07:36:25.679Z,17.93
2023-03-17T07:38:52.770Z,18.29
2023-03-17T07:41:20.756Z,18.48
2023-03-17T07:43:47.784Z,18.69
2023-03-17T07:46:15.252Z,18.99
2023-03-17T07:48:44.175Z,19.25
2023-03-17T07:51:15.018Z,19.41
2023-03-17T07:53:42.782Z,19.35
2023-03-17T07:56:11.808Z,19.20
2023-03-17T07:58:38.870Z,19.34
2023-03-17T08:03:49.706Z,19.43
2023-03-17T08:06:17.040Z,19.19
2023-03-17T08:08:44.195Z,18.90
2023-03-17T08:11:12.516Z,18.73
2023-03-17T08:13:39.875Z,18.53
2023-03-17T08:16:08.318Z,18.19
2023-03-17T08:18:35.434Z,17.88
2023-03-17T08:21:03.000Z,17.70
2023-03-17T08:23:30.140Z,17.45
2023-03-17T08:26:02.113Z,17.47
2023-03-17T08:28:31.579Z,17.81
2023-03-17T08:31:12.215Z,17.76
2023-03-17T08:33:40.026Z,17.17
2023-03-17T08:36:12.950Z,16.34
2023-03-17T08:38:41.627Z,15.28
2023-03-17T08:41:12.385Z,14.39
2023-03-17T08:43:40.512Z,13.53
2023-03-17T08:46:10.294Z,12.94
2023-03-17T08:48:38.210Z,12.43
2023-03-17T08:51:06.064Z,12.26
2023-03-17T08:53:35.226Z,12.63
2023-03-17T08:56:03.937Z,12.96
2023-03-17T08:58:31.718Z,13.21
2023-03-17T09:01:01.761Z,13.60
2023-03-17T09:03:50.198Z,14.17
2023-03-17T09:06:18.231Z,14.69
2023-03-17T09:08:47.760Z,15.22
2023-03-17T09:11:17.866Z,15.38
2023-03-17T09:13:46.589Z,15.51
2023-03-17T09:16:14.635Z,15.86
2023-03-17T09:18:42.257Z,16.28
2023-03-17T09:21:11.957Z,16.64
2023-03-17T09:23:39.239Z,16.93
2023-03-17T09:26:07.005Z,16.89
2023-03-17T09:28:34.200Z,16.57
2023-03-17T09:31:02.710Z,16.56
2023-03-17T09:33:31.108Z,16.36
2023-03-17T09:35:58.634Z,16.26
2023-03-17T09:38:26.450Z,16.42
2023-03-17T09:40:58.910Z,16.32
2023-03-17T09:43:37.246Z,16.22
2023-03-17T09:46:22.549Z,16.13
2023-03-17T09:48:55.539Z,16.08
2023-03-17T09:51:23.102Z,16.22
2023-03-17T09:53:55.684Z,16.32
2023-03-17T09:56:24.896Z,16.47
2023-03-17T09:58:55.613Z,16.49
2023-03-17T10:01:23.583Z,16.44
2023-03-17T10:03:51.792Z,16.31
2023-03-17T10:06:37.760Z,16.20
2023-03-17T10:09:14.380Z,15.81
2023-03-17T10:11:44.420Z,15.63
2023-03-17T10:14:27.373Z,15.42
2023-03-17T10:16:59.357Z,15.26
2023-03-17T10:19:32.144Z,15.05
2023-03-17T10:22:04.278Z,15.07
2023-03-17T10:24:34.194Z,14.86
2023-03-17T10:27:04.757Z,14.70
2023-03-17T10:29:32.742Z,14.68
2023-03-17T10:32:00.252Z,14.38
2023-03-17T10:34:33.075Z,14.19
2023-03-17T10:37:05.925Z,14.16
2023-03-17T10:39:33.827Z,13.97
2023-03-17T10:42:09.233Z,13.82
2023-03-17T10:44:49.810Z,13.52
2023-03-17T10:47:46.064Z,13.31
2023-03-17T10:50:25.386Z,13.17
2023-03-17T10:52:58.091Z,12.86
2023-03-17T10:55:29.458Z,12.54
2023-03-17T10:58:05.080Z,12.31
2023-03-17T11:00:38.753Z,12.07
2023-03-17T11:03:16.831Z,11.95
2023-03-17T11:05:58.074Z,11.67
2023-03-17T11:08:25.846Z,11.56
2023-03-17T11:10:58.603Z,11.51
2023-03-17T11:13:31.863Z,11.58
2023-03-17T11:16:22.191Z,11.54
2023-03-17T11:18:55.958Z,11.25
2023-03-17T11:21:31.359Z,11.15
2023-03-17T11:24:09.616Z,11.05
2023-03-17T11:26:57.614Z,10.96
2023-03-17T11:29:54.805Z,10.94
2023-03-17T11:32:37.059Z,10.90
2023-03-17T11:35:36.315Z,10.87
2023-03-17T11:38:24.564Z,11.12
2023-03-17T11:41:33.068Z,11.23
2023-03-17T11:44:37.432Z,11.05
2023-03-17T11:47:10.295Z,10.82
2023-03-17T11:50:09.712Z,10.67
2023-03-17T11:53:09.924Z,10.61
2023-03-17T11:55:47.394Z,10.58
2023-03-17T11:58:20.984Z,10.49
2023-03-17T12:01:12.588Z,10.39
2023-03-17T12:03:46.910Z,10.40
2023-03-17T12:06:20.748Z,10.46
2023-03-17T12:08:56.298Z,10.48
2023-03-17T12:11:38.209Z,10.35
2023-03-17T12:14:08.215Z,10.29
2023-03-17T12:16:52.737Z,10.27
2023-03-17T12:19:46.458Z,10.16
2023-03-17T12:22:39.324Z,10.03
2023-03-17T12:25:16.608Z,9.89
2023-03-17T12:27:56.427Z,9.70
2023-03-17T12:30:33.056Z,9.53
2023-03-17T12:33:08.030Z,9.37
2023-03-17T12:35:38.732Z,9.28
2023-03-17T12:38:12.989Z,9.24
2023-03-17T12:40:55.557Z,9.25
2023-03-17T12:43:46.915Z,9.26
2023-03-17T12:46:52.425Z,9.22
2023-03-17T12:49:42.300Z,9.18
2023-03-17T12:52:50.709Z,9.18
2023-03-17T12:55:32.552Z,9.14
2023-03-17T12:58:05.718Z,9.06
2023-03-17T13:00:49.300Z,9.05
2023-03-17T13:03:24.599Z,8.96
2023-03-17T13:06:02.198Z,8.88
2023-03-17T13:08:58.245Z,8.84
2023-03-17T13:11:47.445Z,8.85
2023-03-17T13:14:28.657Z,8.84
2023-03-17T13:17:36.318Z,8.85
2023-03-17T13:20:18.432Z,8.84
2023-03-17T13:23:05.165Z,8.83
2023-03-17T13:25:53.841Z,8.80
2023-03-17T13:28:42.020Z,8.77
2023-03-17T13:31:30.829Z,8.72
2023-03-17T13:34:16.348Z,8.67
2023-03-17T13:36:55.599Z,8.67
2023-03-17T13:40:11.175Z,8.67
2023-03-17T13:43:07.713Z,8.70
2023-03-17T13:45:48.898Z,8.70
2023-03-17T13:48:36.549Z,8.67
2023-03-17T13:51:18.791Z,8.65
2023-03-17T13:53:59.634Z,8.71
2023-03-17T13:56:30.603Z,8.74
2023-03-17T13:59:13.359Z,8.70
2023-03-17T14:01:47.170Z,8.70
2023-03-17T14:04:22.906Z,8.70
2023-03-17T14:07:20.993Z,8.68
2023-03-17T14:09:59.229Z,8.66
2023-03-17T14:12:34.082Z,8.66
2023-03-17T14:15:08.369Z,8.68
2023-03-17T14:17:49.799Z,8.73
2023-03-17T14:20:30.092Z,8.80
2023-03-17T14:23:01.490Z,8.82
2023-03-17T14:25:34.722Z,8.82
2023-03-17T14:28:18.150Z,8.83
2023-03-17T14:30:54.485Z,8.81
2023-03-17T14:33:25.741Z,8.83
2023-03-17T14:35:57.504Z,8.85
2023-03-17T14:38:27.163Z,8.85
2023-03-17T14:41:04.467Z,8.84
2023-03-17T14:43:32.068Z,8.79
2023-03-17T14:46:04.978Z,8.73
2023-03-17T14:48:35.499Z,8.66
2023-03-17T14:51:07.020Z,8.62
2023-03-17T14:53:35.659Z,8.55
2023-03-17T14:56:10.921Z,8.50
2023-03-17T14:58:47.931Z,8.45
2023-03-17T15:01:22.010Z,8.42
2023-03-17T15:04:06.144Z,8.39
2023-03-17T15:06:52.977Z,8.31
2023-03-17T15:09:27.259Z,8.27
2023-03-17T15:11:59.270Z,8.23
2023-03-17T15:14:33.000Z,8.19
2023-03-17T15:17:03.186Z,8.12
2023-03-17T15:19:42.802Z,8.07
2023-03-17T15:22:26.406Z,8.06
2023-03-17T15:25:02.463Z,8.04
2023-03-17T15:27:44.815Z,8.01
2023-03-17T15:30:16.086Z,8.02
2023-03-17T15:32:44.026Z,8.01
2023-03-17T15:35:25.182Z,8.01
2023-03-17T15:37:52.649Z,7.99
2023-03-17T15:40:20.784Z,7.97
2023-03-17T15:42:48.281Z,7.93
2023-03-17T15:45:19.637Z,7.87
2023-03-17T15:48:10.662Z,7.80
2023-03-17T15:50:50.707Z,7.74
2023-03-17T15:53:23.638Z,7.69
2023-03-17T15:55:51.330Z,7.64
2023-03-17T15:58:27.427Z,7.59
2023-03-17T16:00:59.781Z,7.55
2023-03-17T16:03:34.039Z,7.50
2023-03-17T16:06:12.395Z,7.45
2023-03-17T16:08:42.848Z,7.41
2023-03-17T16:11:17.896Z,7.38
2023-03-17T16:13:45.323Z,7.35
2023-03-17T16:16:21.534Z,7.33
2023-03-17T16:18:53.623Z,7.29
2023-03-17T16:21:21.653Z,7.32
2023-03-17T16:24:17.317Z,7.31
2023-03-17T16:27:03.992Z,7.26
2023-03-17T16:29:31.512Z,7.23
2023-03-17T16:32:16.064Z,7.18
2023-03-17T16:34:53.609Z,7.12
2023-03-17T16:37:21.223Z,7.07
2023-03-17T16:40:22.801Z,7.03
2023-03-17T16:42:53.421Z,6.99
2023-03-17T16:45:33.254Z,6.95
2023-03-17T16:48:01.935Z,6.92
2023-03-17T16:50:39.247Z,6.88
2023-03-17T16:53:27.632Z,6.85
2023-03-17T16:56:04.612Z,6.81
2023-03-17T16:58:52.585Z,6.75
2023-03-17T17:01:40.073Z,6.74
2023-03-17T17:04:12.048Z,6.72
2023-03-17T17:06:42.595Z,6.70
2023-03-17T17:09:17.187Z,6.68
2023-03-17T17:11:58.708Z,6.65
2023-03-17T17:14:38.843Z,6.63
2023-03-17T17:17:06.831Z,6.60
2023-03-17T17:19:54.374Z,6.58
2023-03-17T17:22:41.820Z,6.55
2023-03-17T17:25:13.134Z,6.53
2023-03-17T17:27:45.954Z,6.50
2023-03-17T17:30:34.390Z,6.47
2023-03-17T17:33:05.722Z,6.43
2023-03-17T17:35:34.505Z,6.41
2023-03-17T17:38:02.637Z,6.36
2023-03-17T17:40:31.104Z,6.32
2023-03-17T17:43:02.141Z,6.28
2023-03-17T17:45:39.582Z,6.23
2023-03-17T17:48:22.606Z,6.19
2023-03-17T17:50:49.955Z,6.15
2023-03-17T17:53:37.745Z,6.11
2023-03-17T17:56:05.273Z,6.08
2023-03-17T17:58:37.970Z,6.03
2023-03-17T18:01:18.880Z,6.00
2023-03-17T18:04:06.715Z,5.97
2023-03-17T18:06:44.044Z,5.93
2023-03-17T18:09:12.681Z,5.90
2023-03-17T18:11:51.461Z,5.87
2023-03-17T18:14:30.103Z,5.83
2023-03-17T18:17:00.599Z,5.80
2023-03-17T18:20:23.938Z,5.77
2023-03-17T18:23:05.064Z,5.74
2023-03-17T18:25:32.632Z,5.72
2023-03-17T18:28:01.615Z,5.69
2023-03-17T18:30:48.235Z,5.65
2023-03-17T18:33:27.839Z,5.63
2023-03-17T18:36:00.605Z,5.58
2023-03-17T18:38:48.444Z,5.57
2023-03-17T18:41:36.594Z,5.53
2023-03-17T18:44:03.920Z,5.50
2023-03-17T18:46:36.557Z,5.47
2023-03-17T18:49:27.305Z,5.44
2023-03-17T18:52:15.476Z,5.42
2023-03-17T18:55:08.629Z,5.40
2023-03-17T18:57:48.945Z,5.37
2023-03-17T19:00:20.310Z,5.36
2023-03-17T19:02:56.070Z,5.35
2023-03-17T19:05:24.799Z,5.33
2023-03-17T19:07:55.371Z,5.32
2023-03-17T19:10:23.078Z,5.30
2023-03-17T19:13:04.661Z,5.28
2023-03-17T19:15:42.750Z,5.25
2023-03-17T19:18:10.315Z,5.23
2023-03-17T19:20:38.071Z,5.24
2023-03-17T19:23:08.053Z,5.23
2023-03-17T19:25:38.067Z,5.21
2023-03-17T19:28:14.625Z,5.18
2023-03-17T19:30:45.725Z,5.16
2023-03-17T19:33:13.258Z,5.13
2023-03-17T19:36:03.098Z,5.11
2023-03-17T19:38:36.468Z,5.08
2023-03-17T19:41:07.911Z,5.04
2023-03-17T19:43:55.295Z,5.01
2023-03-17T19:46:41.555Z,4.97
2023-03-17T19:49:29.234Z,4.93
2023-03-17T19:52:15.721Z,4.89
2023-03-17T19:54:50.664Z,4.85
2023-03-17T19:57:20.960Z,4.84
2023-03-17T20:00:00.908Z,4.82
2023-03-17T20:02:31.616Z,4.81
2023-03-17T20:05:11.462Z,4.79
2023-03-17T20:07:49.269Z,4.77
2023-03-17T20:10:16.624Z,4.76
2023-03-17T20:12:45.812Z,4.72
2023-03-17T20:15:14.293Z,4.71
2023-03-17T20:17:44.686Z,4.70
2023-03-17T20:20:16.307Z,4.67
2023-03-17T20:22:53.562Z,4.65
2023-03-17T20:25:21.907Z,4.62
2023-03-17T20:27:57.787Z,4.60
2023-03-17T20:30:39.634Z,4.58
2023-03-17T20:33:08.473Z,4.56
2023-03-17T20:35:39.259Z,4.53
2023-03-17T20:38:27.123Z,4.51
2023-03-17T20:41:08.370Z,4.47
2023-03-17T20:43:37.641Z,4.44
2023-03-17T20:46:18.672Z,4.42
2023-03-17T20:48:48.296Z,4.40
2023-03-17T20:51:36.807Z,4.38
2023-03-17T20:54:05.398Z,4.36
2023-03-17T20:56:44.310Z,4.35
2023-03-17T20:59:13.773Z,4.33
2023-03-17T21:01:42.741Z,4.31
2023-03-17T21:04:21.378Z,4.30
2023-03-17T21:06:56.238Z,4.28
2023-03-17T21:09:23.846Z,4.26
2023-03-17T21:12:15.067Z,4.24
2023-03-17T21:15:02.395Z,4.23
2023-03-17T21:17:32.751Z,4.22
2023-03-17T21:19:59.955Z,4.21
2023-03-17T21:22:27.790Z,4.20
2023-03-17T21:24:55.633Z,4.17
2023-03-17T21:27:23.277Z,4.17
2023-03-17T21:29:51.411Z,4.16
2023-03-17T21:32:31.935Z,4.16
2023-03-17T21:35:11.387Z,4.15
2023-03-17T21:37:58.996Z,4.15
2023-03-17T21:40:37.713Z,4.14
2023-03-17T21:43:05.784Z,4.14
2023-03-17T21:45:33.288Z,4.14
2023-03-17T21:48:21.076Z,4.14
2023-03-17T21:50:58.536Z,4.14
2023-03-17T21:53:42.571Z,4.11
2023-03-17T21:56:12.702Z,4.11
2023-03-17T21:58:44.827Z,4.09
2023-03-17T22:01:21.980Z,4.08
2023-03-17T22:03:49.524Z,4.08
2023-03-17T22:06:36.980Z,4.05
2023-03-17T22:09:04.512Z,4.05
2023-03-17T22:11:51.897Z,4.03
2023-03-17T22:14:39.478Z,4.01
2023-03-17T22:17:17.612Z,4.00
2023-03-17T22:19:45.374Z,3.99
2023-03-17T22:22:23.069Z,3.98
2023-03-17T22:25:11.428Z,3.97
2023-03-17T22:27:58.738Z,3.97
2023-03-17T22:30:44.789Z,3.95
2023-03-17T22:33:33.193Z,3.94
2023-03-17T22:36:10.919Z,3.93
2023-03-17T22:38:47.497Z,3.92
2023-03-17T22:41:29.117Z,3.93
2023-03-17T22:43:57.518Z,3.92
2023-03-17T22:46:37.845Z,3.93
2023-03-17T22:49:08.952Z,3.92
2023-03-17T22:51:56.424Z,3.92
2023-03-17T22:54:37.553Z,3.93
2023-03-17T22:57:23.825Z,3.94
2023-03-17T22:59:55.304Z,3.93
2023-03-17T23:02:34.922Z,3.92
2023-03-17T23:05:05.687Z,3.90
2023-03-17T23:07:50.698Z,3.90
2023-03-17T23:10:24.809Z,3.90
2023-03-17T23:12:52.752Z,3.90
2023-03-17T23:15:21.229Z,3.89
2023-03-17T23:17:52.103Z,3.87
2023-03-17T23:20:24.765Z,3.86
2023-03-17T23:22:54.861Z,3.84
2023-03-17T23:25:25.852Z,3.83
2023-03-17T23:27:53.269Z,3.82
2023-03-17T23:30:23.422Z,3.81
2023-03-17T23:33:01.426Z,3.80
2023-03-17T23:35:41.847Z,3.79
2023-03-17T23:38:09.782Z,3.77
2023-03-17T23:40:58.429Z,3.75
2023-03-17T23:43:46.904Z,3.75
2023-03-17T23:46:34.784Z,3.72
2023-03-17T23:49:12.326Z,3.71
2023-03-17T23:51:50.965Z,3.70
2023-03-17T23:54:28.001Z,3.69
2023-03-17T23:57:05.258Z,3.68
2023-03-17T23:59:32.663Z,3.67
